Time;durP1;ratioP1;P1;durP2;ratioP2;P2;SDS_P1;SDS_P2;PMS_P1;PMS_P2;Temp;Humidity;BMP_temperature;BMP_pressure;BME280_temperature;BME280_humidity;BME280_pressure;Samples;Min_cycle;Max_cycle;Signal;HPM_P1;HPM_P2
2023/10/23 00:02:10;;;;;;;3.95;3.17;;;;;;;;;;4994534;28;20407;-80
2023/10/23 00:04:37;;;;;;;5.00;3.08;;;;;;;;;;5022497;28;20084;-80
2023/10/23 00:07:04;;;;;;;6.82;3.45;;;;;;;;;;4998571;28;20064;-81
2023/10/23 00:09:34;;;;;;;5.47;3.42;;;;;;;;;;5017501;28;20060;-80
2023/10/23 00:12:01;;;;;;;3.08;2.35;;;;;;;;;;4998054;28;20058;-80
2023/10/23 00:14:30;;;;;;;3.80;2.90;;;;;;;;;;4991849;28;20072;-80
2023/10/23 00:16:58;;;;;;;4.47;2.88;;;;;;;;;;5012760;28;20068;-80
2023/10/23 00:19:25;;;;;;;4.53;3.13;;;;;;;;;;4997646;28;20061;-80
2023/10/23 00:21:52;;;;;;;4.22;3.15;;;;;;;;;;5022587;28;20403;-80
2023/10/23 00:24:19;;;;;;;5.32;2.88;;;;;;;;;;4997638;28;20046;-80
2023/10/23 00:26:46;;;;;;;4.97;2.40;;;;;;;;;;5015637;28;20054;-80
2023/10/23 00:29:14;;;;;;;5.25;2.85;;;;;;;;;;4997432;28;20060;-80
2023/10/23 00:31:46;;;;;;;4.10;1.88;;;;;;;;;;5009765;28;20045;-80
2023/10/23 00:34:13;;;;;;;4.63;2.15;;;;;;;;;;5000283;28;20057;-80
2023/10/23 00:36:42;;;;;;;2.90;2.28;;;;;;;;;;5021292;28;20046;-80
2023/10/23 00:39:10;;;;;;;2.33;2.13;;;;;;;;;;5015125;28;20500;-80
2023/10/23 00:41:38;;;;;;;5.05;2.42;;;;;;;;;;4998026;28;20057;-80
2023/10/23 00:44:07;;;;;;;5.15;2.40;;;;;;;;;;5013280;28;20046;-80
2023/10/23 00:46:35;;;;;;;2.50;2.17;;;;;;;;;;4995568;28;20057;-80
2023/10/23 00:49:03;;;;;;;3.05;2.75;;;;;;;;;;5015187;28;20045;-80
2023/10/23 00:51:33;;;;;;;3.45;2.53;;;;;;;;;;4999170;28;20538;-80
2023/10/23 00:54:02;;;;;;;7.53;3.55;;;;;;;;;;5003391;28;20062;-80
2023/10/23 00:56:31;;;;;;;3.97;2.35;;;;;;;;;;5000414;28;20049;-80
2023/10/23 00:58:58;;;;;;;6.13;2.15;;;;;;;;;;4998473;28;20049;-80
2023/10/23 01:01:26;;;;;;;4.47;2.28;;;;;;;;;;5006022;28;20060;-80
2023/10/23 01:03:56;;;;;;;6.10;3.20;;;;;;;;;;5021371;28;20419;-79
2023/10/23 01:06:24;;;;;;;3.55;2.15;;;;;;;;;;5015363;23;20042;-81
2023/10/23 01:08:52;;;;;;;4.43;2.03;;;;;;;;;;4977877;28;20073;-82
2023/10/23 01:11:19;;;;;;;3.08;1.70;;;;;;;;;;4996189;28;20049;-82
2023/10/23 01:13:46;;;;;;;3.75;2.22;;;;;;;;;;4981485;28;20062;-82
2023/10/23 01:16:16;;;;;;;2.97;2.20;;;;;;;;;;4993151;28;20069;-82
2023/10/23 01:18:43;;;;;;;4.18;2.22;;;;;;;;;;5009727;28;20058;-81
2023/10/23 01:21:15;;;;;;;2.47;1.90;;;;;;;;;;4994066;28;20054;-82
2023/10/23 01:23:45;;;;;;;3.05;2.15;;;;;;;;;;4996378;28;20051;-82
2023/10/23 01:26:18;;;;;;;4.78;2.35;;;;;;;;;;5009590;28;20049;-82
2023/10/23 01:28:46;;;;;;;2.92;2.38;;;;;;;;;;5003256;28;20432;-81
2023/10/23 01:31:13;;;;;;;5.45;2.17;;;;;;;;;;4989429;28;20050;-81
2023/10/23 01:33:43;;;;;;;3.08;2.35;;;;;;;;;;4980447;28;20049;-81
2023/10/23 01:36:12;;;;;;;2.28;1.98;;;;;;;;;;5009523;28;20053;-81
2023/10/23 01:38:40;;;;;;;2.72;2.08;;;;;;;;;;4997629;28;20146;-81
2023/10/23 01:41:09;;;;;;;3.58;2.25;;;;;;;;;;5010938;28;20042;-81
2023/10/23 01:43:40;;;;;;;5.40;1.95;;;;;;;;;;4993139;28;20055;-81
2023/10/23 01:46:10;;;;;;;3.35;2.20;;;;;;;;;;5012827;28;20042;-81
2023/10/23 01:48:39;;;;;;;5.07;2.40;;;;;;;;;;4996842;28;20050;-81
2023/10/23 01:51:07;;;;;;;2.55;1.70;;;;;;;;;;4980995;28;20073;-81
2023/10/23 01:53:36;;;;;;;1.60;1.33;;;;;;;;;;4993538;28;20061;-81
2023/10/23 01:56:08;;;;;;;2.67;1.73;;;;;;;;;;5012829;28;21437;-81
2023/10/23 01:58:35;;;;;;;6.00;1.83;;;;;;;;;;4981644;28;20050;-81
2023/10/23 02:01:06;;;;;;;3.00;1.83;;;;;;;;;;4977334;28;20535;-81
2023/10/23 02:03:33;;;;;;;3.25;2.50;;;;;;;;;;5010984;28;20047;-81
2023/10/23 02:06:03;;;;;;;3.10;2.47;;;;;;;;;;4996982;28;20050;-81
2023/10/23 02:08:30;;;;;;;4.45;2.35;;;;;;;;;;4992338;28;20046;-81
2023/10/23 02:10:57;;;;;;;2.83;1.90;;;;;;;;;;4981579;28;20038;-81
2023/10/23 02:13:28;;;;;;;1.77;1.65;;;;;;;;;;5011273;28;20054;-81
2023/10/23 02:15:57;;;;;;;1.95;1.75;;;;;;;;;;4995731;28;20066;-81
2023/10/23 02:18:28;;;;;;;1.83;1.63;;;;;;;;;;4996102;28;20053;-81
2023/10/23 02:20:55;;;;;;;2.22;1.63;;;;;;;;;;4980939;28;20504;-81
2023/10/23 02:23:23;;;;;;;5.57;1.88;;;;;;;;;;4992416;28;20049;-81
2023/10/23 02:25:51;;;;;;;3.42;2.05;;;;;;;;;;5012039;28;20051;-81
2023/10/23 02:28:23;;;;;;;2.05;1.55;;;;;;;;;;4996949;28;20038;-81
2023/10/23 02:30:50;;;;;;;1.52;1.35;;;;;;;;;;4998776;28;20061;-81
2023/10/23 02:33:17;;;;;;;2.00;1.35;;;;;;;;;;4980148;28;20054;-81
2023/10/23 02:35:47;;;;;;;2.70;1.50;;;;;;;;;;4998725;28;20054;-81
2023/10/23 02:38:14;;;;;;;1.90;1.75;;;;;;;;;;4998371;28;20050;-81
2023/10/23 02:40:41;;;;;;;2.88;1.80;;;;;;;;;;4998001;28;20038;-81
2023/10/23 02:43:11;;;;;;;3.08;1.70;;;;;;;;;;5010342;28;20053;-81
2023/10/23 02:45:38;;;;;;;3.70;2.47;;;;;;;;;;4987961;28;20054;-81
2023/10/23 02:48:06;;;;;;;1.73;1.40;;;;;;;;;;4997213;28;20077;-81
2023/10/23 02:50:33;;;;;;;2.53;1.95;;;;;;;;;;4997732;28;20046;-81
2023/10/23 02:53:02;;;;;;;1.58;1.42;;;;;;;;;;4996043;28;20059;-81
2023/10/23 02:55:29;;;;;;;1.60;1.50;;;;;;;;;;4993836;28;20509;-81
2023/10/23 02:57:57;;;;;;;2.15;1.30;;;;;;;;;;4982905;28;20214;-81
2023/10/23 03:00:24;;;;;;;3.45;1.80;;;;;;;;;;4997888;28;20050;-81
2023/10/23 03:02:54;;;;;;;2.42;1.48;;;;;;;;;;4997254;28;20057;-81
2023/10/23 03:05:21;;;;;;;4.45;1.63;;;;;;;;;;5012780;28;20050;-81
2023/10/23 03:07:48;;;;;;;2.10;1.23;;;;;;;;;;4981030;28;20061;-81
2023/10/23 03:10:17;;;;;;;3.13;1.95;;;;;;;;;;4998047;28;20046;-81
2023/10/23 03:12:44;;;;;;;1.98;1.40;;;;;;;;;;4996804;28;20043;-81
2023/10/23 03:15:14;;;;;;;1.90;1.23;;;;;;;;;;4995452;28;20122;-81
2023/10/23 03:17:43;;;;;;;3.08;2.25;;;;;;;;;;4997945;28;20038;-81
2023/10/23 03:20:12;;;;;;;6.50;2.25;;;;;;;;;;4992828;28;20148;-81
2023/10/23 03:22:39;;;;;;;3.88;1.88;;;;;;;;;;4998269;28;20050;-81
2023/10/23 03:25:07;;;;;;;1.88;1.30;;;;;;;;;;4981442;28;20065;-81
2023/10/23 03:27:36;;;;;;;4.18;2.88;;;;;;;;;;4981633;28;20042;-81
2023/10/23 03:30:04;;;;;;;2.67;1.30;;;;;;;;;;5006470;28;20051;-81
2023/10/23 03:32:32;;;;;;;3.17;1.77;;;;;;;;;;4997839;28;20053;-81
2023/10/23 03:35:00;;;;;;;3.67;1.58;;;;;;;;;;4981233;28;20054;-81
2023/10/23 03:37:32;;;;;;;4.90;1.90;;;;;;;;;;5009520;28;20043;-81
2023/10/23 03:39:59;;;;;;;2.17;1.98;;;;;;;;;;4992996;28;20043;-80
2023/10/23 03:42:26;;;;;;;2.25;1.90;;;;;;;;;;5011045;28;20046;-81
2023/10/23 03:44:59;;;;;;;1.85;1.42;;;;;;;;;;4997112;28;20058;-81
2023/10/23 03:47:29;;;;;;;3.15;1.40;;;;;;;;;;5013197;28;20043;-81
2023/10/23 03:49:56;;;;;;;3.35;1.70;;;;;;;;;;4993344;28;20042;-81
2023/10/23 03:52:26;;;;;;;4.80;2.25;;;;;;;;;;4981965;28;20049;-81
2023/10/23 03:54:58;;;;;;;2.35;1.30;;;;;;;;;;4978824;28;20053;-81
2023/10/23 03:57:27;;;;;;;2.85;1.60;;;;;;;;;;4997154;28;20562;-81
2023/10/23 03:59:55;;;;;;;1.95;1.63;;;;;;;;;;4990502;28;20069;-81
2023/10/23 04:02:24;;;;;;;1.83;1.63;;;;;;;;;;4995755;28;20389;-81
2023/10/23 04:04:53;;;;;;;3.75;1.73;;;;;;;;;;4996654;28;20053;-81
2023/10/23 04:07:22;;;;;;;6.10;2.72;;;;;;;;;;4979497;28;20054;-81
2023/10/23 04:09:50;;;;;;;2.28;1.55;;;;;;;;;;5007481;28;20888;-81
2023/10/23 04:12:17;;;;;;;2.03;1.67;;;;;;;;;;4999611;28;20042;-81
2023/10/23 04:14:45;;;;;;;2.13;1.77;;;;;;;;;;4996956;28;20046;-81
2023/10/23 04:17:15;;;;;;;4.75;2.50;;;;;;;;;;5012713;28;20061;-81
2023/10/23 04:19:48;;;;;;;3.63;2.05;;;;;;;;;;5009460;28;20057;-81
2023/10/23 04:22:18;;;;;;;3.38;1.83;;;;;;;;;;5007276;28;20038;-81
2023/10/23 04:24:48;;;;;;;2.60;1.58;;;;;;;;;;5003962;28;20050;-81
2023/10/23 04:27:15;;;;;;;2.92;2.28;;;;;;;;;;4980591;28;20062;-81
2023/10/23 04:29:44;;;;;;;2.72;1.67;;;;;;;;;;4990291;28;20043;-81
2023/10/23 04:32:12;;;;;;;5.65;1.60;;;;;;;;;;5005904;28;20411;-81
2023/10/23 04:34:44;;;;;;;2.67;1.55;;;;;;;;;;4997004;28;20053;-81
2023/10/23 04:37:12;;;;;;;2.30;1.67;;;;;;;;;;4977530;28;20047;-81
2023/10/23 04:39:39;;;;;;;3.00;2.15;;;;;;;;;;4992885;28;20051;-81
2023/10/23 04:42:07;;;;;;;5.90;3.78;;;;;;;;;;4995708;28;20123;-81
2023/10/23 04:44:36;;;;;;;4.10;3.33;;;;;;;;;;5008259;28;20123;-81
2023/10/23 04:47:04;;;;;;;2.70;2.40;;;;;;;;;;4984644;28;20050;-81
2023/10/23 04:49:31;;;;;;;4.97;2.17;;;;;;;;;;5000011;28;20042;-81
2023/10/23 04:51:58;;;;;;;2.42;1.65;;;;;;;;;;4999508;28;20054;-81
2023/10/23 04:54:29;;;;;;;2.22;1.88;;;;;;;;;;4997983;28;20049;-81
2023/10/23 04:56:57;;;;;;;2.13;1.48;;;;;;;;;;4984172;28;20043;-81
2023/10/23 04:59:24;;;;;;;2.60;2.13;;;;;;;;;;4993813;28;20070;-81
2023/10/23 05:01:51;;;;;;;4.38;3.25;;;;;;;;;;5004039;28;20488;-81
2023/10/23 05:04:18;;;;;;;4.07;2.15;;;;;;;;;;5017706;28;20046;-81
2023/10/23 05:06:46;;;;;;;7.75;2.53;;;;;;;;;;5009005;28;20524;-81
2023/10/23 05:09:15;;;;;;;4.70;2.58;;;;;;;;;;4998679;28;20062;-81
2023/10/23 05:11:46;;;;;;;6.72;3.88;;;;;;;;;;4994455;28;20057;-81
2023/10/23 05:14:13;;;;;;;5.90;3.50;;;;;;;;;;5010898;28;20065;-81
2023/10/23 05:16:40;;;;;;;13.20;7.50;;;;;;;;;;5007908;28;20054;-81
2023/10/23 05:19:09;;;;;;;7.95;4.80;;;;;;;;;;5009565;28;20046;-81
2023/10/23 05:21:37;;;;;;;6.07;3.55;;;;;;;;;;5009730;28;20051;-82
2023/10/23 05:24:05;;;;;;;4.38;3.92;;;;;;;;;;5011852;28;20050;-81
2023/10/23 05:26:32;;;;;;;7.97;5.05;;;;;;;;;;4994881;28;20050;-81
2023/10/23 05:29:03;;;;;;;6.95;3.80;;;;;;;;;;5012277;28;20046;-81
2023/10/23 05:31:34;;;;;;;3.92;3.55;;;;;;;;;;5007961;28;20057;-81
2023/10/23 05:34:03;;;;;;;3.50;2.00;;;;;;;;;;4994316;28;20055;-81
2023/10/23 05:36:32;;;;;;;4.85;2.88;;;;;;;;;;5000513;28;20062;-81
2023/10/23 05:39:06;;;;;;;5.85;3.47;;;;;;;;;;5012098;28;20046;-81
2023/10/23 05:41:35;;;;;;;5.13;3.08;;;;;;;;;;4998650;28;20058;-81
2023/10/23 05:44:08;;;;;;;4.35;2.83;;;;;;;;;;5000636;28;20065;-81
2023/10/23 05:46:35;;;;;;;14.93;5.15;;;;;;;;;;5000960;28;20050;-81
2023/10/23 05:49:03;;;;;;;6.78;3.97;;;;;;;;;;4983291;28;20051;-81
2023/10/23 05:51:30;;;;;;;4.15;3.47;;;;;;;;;;4997788;28;20454;-81
2023/10/23 05:54:02;;;;;;;9.77;4.22;;;;;;;;;;4984076;28;20054;-81
2023/10/23 05:56:32;;;;;;;5.43;3.58;;;;;;;;;;4979709;28;20057;-81
2023/10/23 05:59:03;;;;;;;7.07;4.28;;;;;;;;;;5014755;28;20511;-81
2023/10/23 06:01:34;;;;;;;3.33;2.67;;;;;;;;;;5001475;28;20057;-82
2023/10/23 06:04:04;;;;;;;7.38;4.65;;;;;;;;;;5012522;28;20050;-81
2023/10/23 06:06:31;;;;;;;6.35;5.10;;;;;;;;;;4997721;28;20046;-81
2023/10/23 06:09:04;;;;;;;7.35;4.32;;;;;;;;;;4983624;28;20089;-81
2023/10/23 06:11:33;;;;;;;6.80;4.50;;;;;;;;;;4987628;28;20049;-81
2023/10/23 06:14:00;;;;;;;6.03;4.45;;;;;;;;;;5001016;28;20050;-81
2023/10/23 06:16:27;;;;;;;3.92;3.47;;;;;;;;;;5015973;28;20058;-81
2023/10/23 06:19:05;;;;;;;4.60;4.20;;;;;;;;;;4999554;28;20081;-81
2023/10/23 06:21:35;;;;;;;7.97;6.60;;;;;;;;;;5000007;28;20049;-81
2023/10/23 06:24:03;;;;;;;7.30;5.05;;;;;;;;;;5000913;28;20046;-81
2023/10/23 06:26:35;;;;;;;12.15;6.03;;;;;;;;;;4996097;28;20414;-81
2023/10/23 06:29:04;;;;;;;10.40;6.35;;;;;;;;;;5012908;28;20050;-81
2023/10/23 06:31:32;;;;;;;9.50;6.68;;;;;;;;;;4999013;28;20046;-81
2023/10/23 06:34:03;;;;;;;5.03;3.80;;;;;;;;;;5014193;28;20062;-80
2023/10/23 06:36:31;;;;;;;6.45;4.43;;;;;;;;;;4982482;28;20062;-81
2023/10/23 06:38:58;;;;;;;6.45;5.38;;;;;;;;;;5000328;28;20055;-81
2023/10/23 06:41:28;;;;;;;4.93;4.40;;;;;;;;;;4983489;28;20056;-80
2023/10/23 06:43:55;;;;;;;4.40;3.97;;;;;;;;;;4996883;28;20061;-80
2023/10/23 06:46:22;;;;;;;3.65;3.35;;;;;;;;;;4974952;28;20046;-80
2023/10/23 06:48:53;;;;;;;3.03;2.25;;;;;;;;;;5014937;28;20050;-80
2023/10/23 06:51:24;;;;;;;4.25;3.13;;;;;;;;;;4983211;28;20053;-80
2023/10/23 06:53:53;;;;;;;4.22;3.38;;;;;;;;;;4999004;28;20058;-80
2023/10/23 06:56:20;;;;;;;5.93;3.60;;;;;;;;;;4991563;28;20058;-81
2023/10/23 06:59:13;;;;;;;6.70;6.10;;;;;;;;;;5795815;22;20949;-84
2023/10/23 07:01:43;;;;;;;10.93;8.10;;;;;;;;;;5008998;28;20049;-84
2023/10/23 07:04:16;;;;;;;9.63;7.85;;;;;;;;;;5014296;28;20446;-84
2023/10/23 07:06:47;;;;;;;7.65;6.95;;;;;;;;;;5013957;28;20054;-84
2023/10/23 07:09:18;;;;;;;9.38;6.88;;;;;;;;;;4996048;28;20057;-84
2023/10/23 07:11:48;;;;;;;7.47;5.68;;;;;;;;;;5008066;28;20515;-83
2023/10/23 07:17:21;;;;;;;5.95;4.93;;;;;;;;;;5047930;23;20050;-84
2023/10/23 07:19:59;;;;;;;5.57;5.00;;;;;;;;;;4990249;28;20054;-83
2023/10/23 07:22:37;;;;;;;6.22;5.68;;;;;;;;;;4990281;28;20049;-84
2023/10/23 07:25:09;;;;;;;6.38;5.78;;;;;;;;;;4991178;28;20054;-84
2023/10/23 07:27:47;;;;;;;;;;;;;;;;;;;;;
2023/10/23 07:30:44;;;;;;;;;;;;;;;;;;;;;
2023/10/23 07:33:31;;;;;;;5.63;4.22;;;;;;;;;;4998303;28;20054;-83
2023/10/23 07:36:11;;;;;;;3.53;3.17;;;;;;;;;;4984297;28;20054;-84
2023/10/23 07:38:49;;;;;;;4.78;3.15;;;;;;;;;;4986351;28;20076;-83
2023/10/23 07:41:34;;;;;;;;;;;;;;;;;;;;;
2023/10/23 07:44:30;;;;;;;4.45;3.22;;;;;;;;;;4969798;28;20072;-84
2023/10/23 07:47:00;;;;;;;3.38;2.88;;;;;;;;;;4990530;28;20049;-84
2023/10/23 07:49:44;;;;;;;4.13;3.67;;;;;;;;;;4980057;28;20075;-84
2023/10/23 10:08:43;;;;;;;4.05;1.80;;;;;;;;;;4804862;29;21384;-84
2023/10/23 10:11:10;;;;;;;2.72;1.83;;;;;;;;;;4904968;29;20063;-84
2023/10/23 10:13:41;;;;;;;2.13;1.20;;;;;;;;;;4920212;28;20856;-84
2023/10/23 10:16:08;;;;;;;1.83;1.48;;;;;;;;;;4978299;28;20058;-84
2023/10/23 10:18:36;;;;;;;2.40;1.45;;;;;;;;;;5001102;28;20042;-84
2023/10/23 10:21:11;;;;;;;7.00;1.60;;;;;;;;;;4997043;28;20693;-84
2023/10/23 10:23:42;;;;;;;3.85;1.98;;;;;;;;;;4997566;28;20073;-83
2023/10/23 10:26:09;;;;;;;3.03;1.58;;;;;;;;;;4992458;28;20051;-84
2023/10/23 10:28:41;;;;;;;4.03;1.77;;;;;;;;;;4999391;28;20053;-83
2023/10/23 10:31:08;;;;;;;3.03;1.63;;;;;;;;;;4990458;28;20050;-83
2023/10/23 10:33:38;;;;;;;1.90;1.55;;;;;;;;;;4986471;28;20529;-83
2023/10/23 10:36:08;;;;;;;5.28;2.30;;;;;;;;;;4989124;28;20043;-84
2023/10/23 10:38:37;;;;;;;3.38;1.92;;;;;;;;;;4996480;28;20412;-84
2023/10/23 10:41:16;;;;;;;3.45;1.85;;;;;;;;;;4974067;28;20061;-84
2023/10/23 10:43:45;;;;;;;4.63;2.75;;;;;;;;;;4987248;28;20042;-83
2023/10/23 10:46:20;;;;;;;4.20;2.42;;;;;;;;;;4991328;28;20042;-83
2023/10/23 10:48:51;;;;;;;3.38;2.40;;;;;;;;;;4985524;28;20055;-83
2023/10/23 10:51:21;;;;;;;2.58;1.60;;;;;;;;;;4990266;28;20065;-83
2023/10/23 10:53:58;;;;;;;2.73;1.80;;;;;;;;;;4973114;28;20051;-84
2023/10/23 10:56:26;;;;;;;2.72;1.70;;;;;;;;;;4986276;28;20060;-84
2023/10/23 10:58:59;;;;;;;4.97;1.90;;;;;;;;;;4989481;28;20046;-84
2023/10/23 11:01:29;;;;;;;3.72;2.05;;;;;;;;;;4977857;28;20068;-84
2023/10/23 11:03:56;;;;;;;3.03;2.17;;;;;;;;;;5002124;28;20046;-83
2023/10/23 11:06:26;;;;;;;4.38;2.25;;;;;;;;;;4981586;28;20057;-83
2023/10/23 11:08:54;;;;;;;3.92;1.65;;;;;;;;;;4971679;28;20428;-84
2023/10/23 11:11:21;;;;;;;5.13;2.78;;;;;;;;;;4993785;28;20399;-83
2023/10/23 11:13:50;;;;;;;2.92;1.95;;;;;;;;;;4990056;28;20057;-83
2023/10/23 11:16:20;;;;;;;5.90;2.42;;;;;;;;;;4991171;28;20122;-84
2023/10/23 11:18:50;;;;;;;4.38;2.30;;;;;;;;;;4984111;28;20444;-83
2023/10/23 11:21:22;;;;;;;2.38;1.70;;;;;;;;;;4972285;28;20050;-83
2023/10/23 11:23:49;;;;;;;2.30;1.50;;;;;;;;;;4970415;28;20046;-83
2023/10/23 11:26:19;;;;;;;5.53;2.13;;;;;;;;;;4986479;28;20049;-83
2023/10/23 11:28:50;;;;;;;3.65;1.60;;;;;;;;;;4984870;28;20061;-83
2023/10/23 11:31:17;;;;;;;3.45;1.42;;;;;;;;;;4981968;28;20051;-83
2023/10/23 11:33:51;;;;;;;3.25;1.63;;;;;;;;;;4981092;28;20046;-84
2023/10/23 11:36:21;;;;;;;2.90;1.90;;;;;;;;;;4973375;28;20495;-83
2023/10/23 11:38:48;;;;;;;2.13;1.50;;;;;;;;;;4971388;28;20054;-84
2023/10/23 11:41:18;;;;;;;4.95;2.20;;;;;;;;;;4980169;28;20058;-84
2023/10/23 11:43:45;;;;;;;2.85;2.00;;;;;;;;;;4988308;28;20051;-84
2023/10/23 11:46:16;;;;;;;3.13;1.20;;;;;;;;;;4988566;28;20046;-84
2023/10/23 11:48:43;;;;;;;2.47;1.90;;;;;;;;;;4986417;28;20065;-83
2023/10/23 11:51:13;;;;;;;4.95;1.88;;;;;;;;;;4998416;28;20057;-84
2023/10/23 11:53:46;;;;;;;4.35;1.70;;;;;;;;;;4991378;28;20065;-84
2023/10/23 11:56:14;;;;;;;3.60;1.83;;;;;;;;;;4991632;28;20055;-83
2023/10/23 11:58:44;;;;;;;3.03;1.15;;;;;;;;;;4971912;28;20050;-83
2023/10/23 12:01:12;;;;;;;2.47;1.30;;;;;;;;;;4988859;28;20057;-83
2023/10/23 12:03:40;;;;;;;2.80;1.42;;;;;;;;;;4973028;28;20061;-83
2023/10/23 12:06:10;;;;;;;1.67;1.10;;;;;;;;;;4975955;28;20061;-83
2023/10/23 12:08:37;;;;;;;1.83;1.13;;;;;;;;;;4991562;28;20051;-83
2023/10/23 12:11:07;;;;;;;2.72;1.20;;;;;;;;;;4990742;28;20053;-83
2023/10/23 12:13:35;;;;;;;2.50;2.30;;;;;;;;;;4988963;28;20050;-83
2023/10/23 12:16:09;;;;;;;3.20;1.40;;;;;;;;;;4989046;28;20062;-83
2023/10/23 12:18:40;;;;;;;2.85;1.42;;;;;;;;;;4990300;28;20061;-83
2023/10/23 12:21:10;;;;;;;4.93;1.90;;;;;;;;;;4985415;28;20053;-83
2023/10/23 12:23:37;;;;;;;1.20;1.02;;;;;;;;;;4991989;28;20057;-83
2023/10/23 12:26:04;;;;;;;6.78;1.48;;;;;;;;;;4988378;28;20043;-83
2023/10/23 12:28:32;;;;;;;3.40;1.20;;;;;;;;;;4990797;28;20054;-83
2023/10/23 12:30:59;;;;;;;3.15;1.23;;;;;;;;;;4984775;28;20543;-84
2023/10/23 12:33:29;;;;;;;6.40;1.10;;;;;;;;;;4974032;28;20050;-83
2023/10/23 12:36:00;;;;;;;3.28;1.40;;;;;;;;;;4988346;28;20038;-83
2023/10/23 12:38:28;;;;;;;1.05;0.90;;;;;;;;;;4987465;28;20066;-83
2023/10/23 12:40:58;;;;;;;3.70;1.73;;;;;;;;;;4986510;28;20055;-83
2023/10/23 12:43:25;;;;;;;4.05;1.13;;;;;;;;;;4990172;28;20042;-83
2023/10/23 12:45:55;;;;;;;2.10;1.27;;;;;;;;;;4989296;28;20042;-84
2023/10/23 12:48:24;;;;;;;2.17;1.33;;;;;;;;;;4984532;28;20054;-85
2023/10/23 12:50:54;;;;;;;7.22;2.55;;;;;;;;;;4970877;28;20550;-84
2023/10/23 12:53:25;;;;;;;2.22;1.58;;;;;;;;;;4973977;28;20053;-84
2023/10/23 12:55:52;;;;;;;1.83;1.15;;;;;;;;;;4974566;28;20439;-84
2023/10/23 12:58:19;;;;;;;1.52;1.08;;;;;;;;;;4987497;28;20484;-84
2023/10/23 13:00:49;;;;;;;2.72;1.30;;;;;;;;;;4985248;28;20061;-84
2023/10/23 13:03:18;;;;;;;1.85;0.85;;;;;;;;;;4970497;28;20065;-84
2023/10/23 13:05:50;;;;;;;3.85;1.60;;;;;;;;;;4971827;28;20053;-84
2023/10/23 13:08:17;;;;;;;1.88;0.98;;;;;;;;;;5000324;28;20046;-84
2023/10/23 13:10:48;;;;;;;2.03;1.27;;;;;;;;;;4978621;28;20058;-84
2023/10/23 13:39:18;;;;;;;2.42;1.45;;;;;;;;;;4937269;29;20047;-81
2023/10/23 13:45:36;;;;;;;2.75;2.00;;;;;;;;;;4919636;29;20043;-80
2023/10/23 13:48:04;;;;;;;2.92;1.40;;;;;;;;;;4935969;29;20051;-80
2023/10/23 13:50:50;;;;;;;1.88;1.13;;;;;;;;;;4964696;23;20511;-80
2023/10/23 13:53:40;;;;;;;1.55;1.42;;;;;;;;;;4972445;28;20058;-80
2023/10/23 13:56:26;;;;;;;2.30;1.13;;;;;;;;;;4990888;28;20039;-80
2023/10/23 13:58:54;;;;;;;4.07;1.80;;;;;;;;;;4987193;28;20496;-80
2023/10/23 14:01:21;;;;;;;3.13;1.20;;;;;;;;;;4958993;28;20066;-80
2023/10/23 15:43:24;;;;;;;2.20;1.63;;;;;;;;;;5602797;23;20052;-81
2023/10/23 15:45:55;;;;;;;1.80;1.50;;;;;;;;;;5026559;28;20060;-80
2023/10/23 15:48:32;;;;;;;2.17;1.65;;;;;;;;;;5016044;28;20060;-80
2023/10/23 15:50:59;;;;;;;2.47;1.70;;;;;;;;;;5021048;28;20060;-80
2023/10/23 15:53:27;;;;;;;3.17;1.58;;;;;;;;;;5033286;28;20403;-81
2023/10/23 16:17:19;;;;;;;8.07;4.60;;;;;;;;;;5059303;28;20049;-82
2023/10/23 16:19:47;;;;;;;8.73;2.55;;;;;;;;;;5037409;28;20057;-81
2023/10/23 16:22:14;;;;;;;2.75;2.00;;;;;;;;;;5058779;28;20540;-82
2023/10/23 16:24:41;;;;;;;4.43;2.47;;;;;;;;;;5021863;28;20057;-81
2023/10/23 16:27:11;;;;;;;4.10;1.80;;;;;;;;;;5019735;28;20071;-82
2023/10/23 16:29:39;;;;;;;4.03;2.50;;;;;;;;;;5055888;28;20052;-82
2023/10/23 16:32:06;;;;;;;2.63;2.10;;;;;;;;;;5041104;28;20402;-82
2023/10/23 16:34:40;;;;;;;4.93;2.40;;;;;;;;;;5055390;28;20056;-82
2023/10/23 16:37:07;;;;;;;3.97;2.03;;;;;;;;;;5023226;28;20296;-82
2023/10/23 16:39:37;;;;;;;3.25;2.20;;;;;;;;;;5051324;28;20048;-82
2023/10/23 16:42:04;;;;;;;4.60;2.45;;;;;;;;;;5054492;28;20056;-82
2023/10/23 16:44:31;;;;;;;2.88;1.98;;;;;;;;;;5023220;28;20048;-82
2023/10/23 16:46:58;;;;;;;4.00;1.85;;;;;;;;;;5041552;28;20053;-82
2023/10/23 16:49:26;;;;;;;2.58;2.10;;;;;;;;;;5025804;28;20072;-81
2023/10/23 16:51:55;;;;;;;4.72;1.92;;;;;;;;;;5042220;28;20040;-81
2023/10/23 16:54:24;;;;;;;5.68;2.53;;;;;;;;;;5041171;28;20036;-81
2023/10/23 16:56:51;;;;;;;2.50;2.25;;;;;;;;;;5040693;28;20049;-81
2023/10/23 16:59:21;;;;;;;2.28;2.08;;;;;;;;;;5030590;28;20061;-81
2023/10/23 17:01:48;;;;;;;4.03;2.10;;;;;;;;;;5019602;28;20735;-81
2023/10/23 17:04:15;;;;;;;3.88;2.53;;;;;;;;;;5055384;28;20041;-81
2023/10/23 17:06:45;;;;;;;2.15;1.75;;;;;;;;;;5039916;28;20063;-81
2023/10/23 17:09:16;;;;;;;4.80;2.80;;;;;;;;;;5055369;28;20414;-81
2023/10/23 17:11:44;;;;;;;3.17;2.70;;;;;;;;;;5041618;28;20498;-81
2023/10/23 17:14:14;;;;;;;3.00;2.47;;;;;;;;;;5029646;28;20044;-81
2023/10/23 17:16:43;;;;;;;9.43;2.40;;;;;;;;;;5044284;28;20037;-81
2023/10/23 17:19:11;;;;;;;2.92;2.60;;;;;;;;;;5061613;28;20045;-81
2023/10/23 17:21:38;;;;;;;6.43;3.40;;;;;;;;;;5036411;28;20065;-81
2023/10/23 17:24:06;;;;;;;3.00;2.05;;;;;;;;;;5055921;28;20045;-81
2023/10/23 17:26:37;;;;;;;3.10;2.22;;;;;;;;;;5048476;28;20071;-80
2023/10/23 17:29:07;;;;;;;4.30;2.42;;;;;;;;;;5053707;28;20075;-80
2023/10/23 17:31:34;;;;;;;6.10;3.65;;;;;;;;;;5021021;28;20053;-80
2023/10/23 17:34:03;;;;;;;3.22;2.92;;;;;;;;;;5021928;28;20057;-81
2023/10/23 17:36:32;;;;;;;3.72;3.00;;;;;;;;;;5020325;28;20044;-81
2023/10/23 17:38:59;;;;;;;4.43;2.80;;;;;;;;;;5048715;28;20132;-81
2023/10/23 17:41:26;;;;;;;3.72;3.30;;;;;;;;;;5045634;28;20049;-81
2023/10/23 17:43:55;;;;;;;6.82;5.50;;;;;;;;;;5029329;28;20048;-81
2023/10/23 17:46:22;;;;;;;5.38;4.85;;;;;;;;;;5024641;28;20052;-80
2023/10/23 17:48:51;;;;;;;4.68;3.70;;;;;;;;;;5023360;28;20049;-81
2023/10/23 17:51:21;;;;;;;2.40;2.10;;;;;;;;;;5016359;28;20045;-80
2023/10/23 17:53:49;;;;;;;3.13;2.58;;;;;;;;;;5017366;28;20199;-80
2023/10/23 17:56:16;;;;;;;3.33;3.03;;;;;;;;;;5041189;28;20049;-81
2023/10/23 17:58:46;;;;;;;3.55;2.45;;;;;;;;;;5057676;28;20060;-81
2023/10/23 18:01:16;;;;;;;6.13;2.65;;;;;;;;;;5023367;28;20060;-80
2023/10/23 18:03:43;;;;;;;2.75;2.55;;;;;;;;;;5016864;28;20061;-81
2023/10/23 18:06:11;;;;;;;6.47;3.83;;;;;;;;;;5056706;28;20053;-81
2023/10/23 18:08:38;;;;;;;5.35;3.65;;;;;;;;;;5053942;28;20041;-81
2023/10/23 18:11:06;;;;;;;4.55;3.95;;;;;;;;;;5043592;28;20041;-81
2023/10/23 18:13:34;;;;;;;4.10;3.28;;;;;;;;;;5044142;28;20387;-84
2023/10/23 18:16:02;;;;;;;4.82;3.03;;;;;;;;;;5061857;28;20044;-81
2023/10/23 18:18:33;;;;;;;3.25;2.85;;;;;;;;;;5060224;28;20052;-81
2023/10/23 18:21:03;;;;;;;4.05;3.22;;;;;;;;;;5039844;28;20063;-81
2023/10/23 18:23:31;;;;;;;3.45;3.15;;;;;;;;;;5042483;28;20602;-81
2023/10/23 18:25:59;;;;;;;4.45;3.38;;;;;;;;;;5060557;28;20060;-81
2023/10/23 18:28:27;;;;;;;4.15;3.10;;;;;;;;;;5060241;28;20041;-81
2023/10/23 18:30:55;;;;;;;5.07;3.08;;;;;;;;;;5026076;28;20053;-81
2023/10/23 18:33:23;;;;;;;3.35;2.95;;;;;;;;;;5026869;28;20053;-81
2023/10/23 18:35:59;;;;;;;3.10;2.80;;;;;;;;;;5041283;28;20060;-81
2023/10/23 18:38:27;;;;;;;3.88;3.35;;;;;;;;;;5020979;28;20083;-81
2023/10/23 18:40:57;;;;;;;9.88;7.05;;;;;;;;;;5015240;28;20049;-81
2023/10/23 18:43:26;;;;;;;7.40;5.72;;;;;;;;;;5008394;28;20050;-81
2023/10/23 18:45:57;;;;;;;6.93;5.32;;;;;;;;;;5039527;28;20060;-81
2023/10/23 18:48:24;;;;;;;6.03;5.40;;;;;;;;;;5040605;28;20045;-81
2023/10/23 18:51:02;;;;;;;6.65;5.53;;;;;;;;;;5019898;28;20057;-81
2023/10/23 18:53:30;;;;;;;8.10;5.38;;;;;;;;;;5023616;28;20041;-81
2023/10/23 18:55:57;;;;;;;6.18;5.07;;;;;;;;;;5024223;28;20045;-81
2023/10/23 18:58:27;;;;;;;6.72;5.80;;;;;;;;;;5022352;28;20053;-81
2023/10/23 19:00:54;;;;;;;6.97;4.75;;;;;;;;;;5022255;28;20049;-81
2023/10/23 19:03:24;;;;;;;6.00;5.40;;;;;;;;;;5058403;28;20037;-81
2023/10/23 19:05:53;;;;;;;6.05;5.55;;;;;;;;;;5024888;28;20064;-81
2023/10/23 19:08:21;;;;;;;5.88;5.30;;;;;;;;;;5041926;28;20048;-81
2023/10/23 19:10:49;;;;;;;6.78;5.28;;;;;;;;;;5022395;28;20049;-81
2023/10/23 19:13:20;;;;;;;6.60;4.50;;;;;;;;;;5057552;22;20051;-85
2023/10/23 19:15:55;;;;;;;6.70;6.10;;;;;;;;;;5042809;28;20057;-81
2023/10/23 19:18:22;;;;;;;6.28;4.78;;;;;;;;;;5046965;28;20045;-81
2023/10/23 19:20:59;;;;;;;12.90;5.32;;;;;;;;;;5028027;28;20053;-81
2023/10/23 19:23:30;;;;;;;6.97;5.43;;;;;;;;;;5046941;28;20056;-81
2023/10/23 19:25:57;;;;;;;4.93;4.18;;;;;;;;;;5027557;28;20053;-81
2023/10/23 19:28:29;;;;;;;5.38;4.20;;;;;;;;;;5046334;28;20060;-81
2023/10/23 19:30:59;;;;;;;5.32;4.82;;;;;;;;;;5047124;28;20049;-81
2023/10/23 19:33:27;;;;;;;5.80;5.13;;;;;;;;;;5047994;28;20487;-81
2023/10/23 19:35:54;;;;;;;5.18;4.65;;;;;;;;;;5062811;28;20065;-81
2023/10/23 19:38:26;;;;;;;6.18;5.50;;;;;;;;;;5047034;28;20063;-81
2023/10/23 19:40:59;;;;;;;5.40;4.65;;;;;;;;;;5029635;28;20048;-81
2023/10/23 19:43:34;;;;;;;6.47;5.70;;;;;;;;;;5064903;28;20063;-81
2023/10/23 19:46:01;;;;;;;10.23;5.30;;;;;;;;;;5046241;28;20600;-81
2023/10/23 19:48:31;;;;;;;5.22;4.53;;;;;;;;;;5064442;28;20049;-81
2023/10/23 19:50:59;;;;;;;9.35;4.28;;;;;;;;;;5066094;28;20143;-81